Time;durP1;ratioP1;P1;durP2;ratioP2;P2;SDS_P1;SDS_P2;PMS_P1;PMS_P2;Temp;Humidity;BMP_temperature;BMP_pressure;BME280_temperature;BME280_humidity;BME280_pressure;Samples;Min_cycle;Max_cycle;Signal;HPM_P1;HPM_P2
2023/06/21 00:00:28;;;;;;;6.77;3.10;;;18.50;99.90;;;;;;5113729;28;20222;-48
2023/06/21 00:02:54;;;;;;;3.00;2.70;;;18.50;99.90;;;;;;5113409;28;20171;-49
2023/06/21 00:05:19;;;;;;;3.27;2.90;;;18.50;99.90;;;;;;5113966;28;20575;-47
2023/06/21 00:07:47;;;;;;;4.20;3.23;;;18.50;99.90;;;;;;5113405;28;20243;-48
2023/06/21 00:10:13;;;;;;;5.70;3.50;;;18.40;99.90;;;;;;5113347;28;20174;-48
2023/06/21 00:12:38;;;;;;;4.57;2.87;;;18.40;99.90;;;;;;5113552;28;20738;-50
2023/06/21 00:15:04;;;;;;;4.33;3.40;;;18.40;99.90;;;;;;5113472;28;20209;-48
2023/06/21 00:17:30;;;;;;;3.33;2.93;;;18.30;99.90;;;;;;5113619;28;20181;-48
2023/06/21 00:19:56;;;;;;;5.50;2.77;;;18.30;99.90;;;;;;5113283;28;20657;-47
2023/06/21 00:22:22;;;;;;;4.47;3.30;;;18.20;99.90;;;;;;5113756;28;20174;-47
2023/06/21 00:24:48;;;;;;;4.20;3.43;;;18.20;99.90;;;;;;5113467;28;20281;-48
2023/06/21 00:27:15;;;;;;;6.60;3.10;;;18.20;99.90;;;;;;5113459;28;20544;-50
2023/06/21 00:29:40;;;;;;;5.97;3.07;;;18.20;99.90;;;;;;5113182;28;20177;-50
2023/06/21 00:32:06;;;;;;;3.90;3.17;;;18.20;99.90;;;;;;5113076;28;20210;-48
2023/06/21 00:34:32;;;;;;;5.13;3.40;;;18.10;99.90;;;;;;5113063;28;20206;-48
2023/06/21 00:36:58;;;;;;;5.47;3.40;;;18.20;99.90;;;;;;5113173;28;20601;-48
2023/06/21 00:39:23;;;;;;;8.60;3.80;;;18.10;99.90;;;;;;5113209;28;20523;-48
2023/06/21 00:41:49;;;;;;;6.27;3.40;;;18.10;99.90;;;;;;5113326;28;20544;-49
2023/06/21 00:44:14;;;;;;;5.07;3.37;;;18.00;99.90;;;;;;5116389;28;20276;-48
2023/06/21 00:46:40;;;;;;;8.10;4.10;;;18.00;99.90;;;;;;5098437;28;20178;-48
2023/06/21 00:49:05;;;;;;;7.90;3.60;;;18.00;99.90;;;;;;5116701;28;20176;-49
2023/06/21 00:51:33;;;;;;;4.80;3.23;;;18.00;99.90;;;;;;5116638;28;20182;-47
2023/06/21 00:53:59;;;;;;;5.90;3.63;;;18.00;99.90;;;;;;5116351;28;20730;-48
2023/06/21 00:56:25;;;;;;;7.03;3.30;;;18.00;99.90;;;;;;5116802;28;20227;-48
2023/06/21 00:58:50;;;;;;;6.27;4.07;;;17.90;99.90;;;;;;5116512;28;20178;-48
2023/06/21 01:01:16;;;;;;;6.43;3.97;;;17.90;99.90;;;;;;5116682;28;20163;-48
2023/06/21 01:03:42;;;;;;;7.00;4.40;;;17.90;99.90;;;;;;5116310;28;20182;-48
2023/06/21 01:06:22;;;;;;;10.30;4.27;;;17.90;99.90;;;;;;5116361;28;20181;-47
2023/06/21 01:09:06;;;;;;;9.87;3.63;;;17.90;99.90;;;;;;5116621;28;20162;-49
2023/06/21 01:11:49;;;;;;;5.57;3.57;;;17.90;99.90;;;;;;5116514;28;20235;-47
2023/06/21 01:14:41;;;;;;;12.67;3.83;;;17.90;99.90;;;;;;5116504;28;20233;-48
2023/06/21 01:17:09;;;;;;;11.93;4.33;;;17.80;99.90;;;;;;5116522;28;20207;-48
2023/06/21 01:19:55;;;;;;;11.70;4.03;;;17.80;99.90;;;;;;5116043;28;20194;-47
2023/06/21 01:22:21;;;;;;;14.83;4.30;;;17.80;99.90;;;;;;5116414;28;20681;-49
2023/06/21 01:25:09;;;;;;;7.60;4.43;;;17.70;99.90;;;;;;5115880;28;20670;-48
2023/06/21 01:27:59;;;;;;;9.17;4.10;;;17.70;99.90;;;;;;5097653;28;20185;-48
2023/06/21 01:30:28;;;;;;;7.67;3.70;;;17.70;99.90;;;;;;5115917;28;20158;-48
2023/06/21 01:32:55;;;;;;;7.60;3.87;;;17.70;99.90;;;;;;5116051;28;20233;-48
2023/06/21 01:35:22;;;;;;;10.27;3.90;;;17.60;99.90;;;;;;5116003;28;20190;-48
2023/06/21 01:37:51;;;;;;;13.97;4.00;;;17.60;99.90;;;;;;5116014;28;20175;-49
2023/06/21 01:40:16;;;;;;;9.43;3.70;;;17.60;99.90;;;;;;5115655;28;20182;-49
2023/06/21 01:42:42;;;;;;;11.03;3.37;;;17.60;99.90;;;;;;5115860;28;20189;-48
2023/06/21 01:45:08;;;;;;;8.27;3.70;;;17.60;99.90;;;;;;5115600;28;20220;-47
2023/06/21 01:47:35;;;;;;;7.00;3.67;;;17.50;99.90;;;;;;5115416;28;20192;-49
2023/06/21 01:50:05;;;;;;;6.87;3.73;;;17.50;99.90;;;;;;5115497;28;20214;-47
2023/06/21 01:52:33;;;;;;;8.77;3.60;;;17.50;99.90;;;;;;5115636;28;20221;-48
2023/06/21 01:54:58;;;;;;;7.90;3.40;;;17.50;99.90;;;;;;5114091;28;20206;-50
2023/06/21 01:57:26;;;;;;;8.73;3.90;;;17.50;99.90;;;;;;5115365;28;20183;-47
2023/06/21 01:59:52;;;;;;;11.10;3.83;;;17.40;99.90;;;;;;5115292;28;20182;-49
2023/06/21 02:02:20;;;;;;;8.37;4.27;;;17.40;99.90;;;;;;5115492;28;20185;-48
2023/06/21 02:04:46;;;;;;;10.40;3.93;;;17.50;99.90;;;;;;5115262;28;20198;-49
2023/06/21 02:07:14;;;;;;;6.33;3.27;;;17.40;99.90;;;;;;5115440;28;20186;-49
2023/06/21 02:09:42;;;;;;;9.03;3.67;;;17.40;99.90;;;;;;5115102;28;20547;-43
2023/06/21 02:12:08;;;;;;;7.70;3.27;;;17.40;99.90;;;;;;5115286;28;20292;-44
2023/06/21 02:14:34;;;;;;;8.37;3.80;;;17.40;99.90;;;;;;5115741;28;20286;-42
2023/06/21 02:16:59;;;;;;;5.03;2.87;;;17.30;99.90;;;;;;5115195;28;20182;-42
2023/06/21 02:19:25;;;;;;;6.87;3.60;;;17.30;99.90;;;;;;5115176;28;20194;-43
2023/06/21 02:21:51;;;;;;;10.50;4.30;;;17.30;99.90;;;;;;5114965;28;20635;-43
2023/06/21 02:24:17;;;;;;;7.50;3.80;;;17.30;99.90;;;;;;5114813;28;20600;-42
2023/06/21 02:26:42;;;;;;;5.53;3.30;;;17.30;99.90;;;;;;5115352;28;20178;-45
2023/06/21 02:29:08;;;;;;;7.17;3.67;;;17.20;99.90;;;;;;5115022;28;20231;-44
2023/06/21 02:31:34;;;;;;;6.17;3.30;;;17.20;99.90;;;;;;5114713;28;20182;-43
2023/06/21 02:33:59;;;;;;;9.20;3.70;;;17.20;99.90;;;;;;5114748;28;20214;-44
2023/06/21 02:36:25;;;;;;;8.00;3.50;;;17.20;99.90;;;;;;5114909;28;20224;-44
2023/06/21 02:38:52;;;;;;;7.40;3.80;;;17.20;99.90;;;;;;5114852;28;20178;-43
2023/06/21 02:41:17;;;;;;;14.60;4.00;;;17.20;99.90;;;;;;5114812;28;20201;-44
2023/06/21 02:43:43;;;;;;;9.83;3.73;;;17.20;99.90;;;;;;5114436;28;20649;-41
2023/06/21 02:46:08;;;;;;;10.70;4.10;;;17.10;99.90;;;;;;5114969;28;20190;-42
2023/06/21 02:48:34;;;;;;;9.60;4.03;;;17.10;99.90;;;;;;5114381;28;20182;-44
2023/06/21 02:51:00;;;;;;;10.00;3.90;;;17.10;99.90;;;;;;5096190;28;20227;-42
2023/06/21 02:53:26;;;;;;;9.63;3.97;;;17.10;99.90;;;;;;5114180;28;20206;-46
2023/06/21 02:55:51;;;;;;;9.03;3.27;;;17.00;99.90;;;;;;5114607;28;20167;-45
2023/06/21 02:58:17;;;;;;;6.30;3.37;;;17.00;99.90;;;;;;5114564;28;20175;-43
2023/06/21 03:00:42;;;;;;;12.57;4.57;;;17.00;99.90;;;;;;5114266;28;20178;-42
2023/06/21 03:03:08;;;;;;;9.77;4.03;;;17.00;99.90;;;;;;5114457;28;20224;-43
2023/06/21 03:05:34;;;;;;;13.20;4.20;;;16.90;99.90;;;;;;5114058;28;20210;-42
2023/06/21 03:08:00;;;;;;;7.67;4.07;;;16.90;99.90;;;;;;5114082;28;20634;-43
2023/06/21 03:10:26;;;;;;;10.37;4.00;;;16.90;99.90;;;;;;5114318;28;20210;-44
2023/06/21 03:12:52;;;;;;;6.67;3.33;;;16.90;99.90;;;;;;5114060;28;20213;-42
2023/06/21 03:15:18;;;;;;;13.17;4.23;;;16.80;99.90;;;;;;5115088;28;20202;-43
2023/06/21 03:17:43;;;;;;;10.07;4.50;;;16.90;99.90;;;;;;5114106;28;20186;-43
2023/06/21 03:20:12;;;;;;;12.20;4.30;;;16.80;99.90;;;;;;5113810;28;20197;-44
2023/06/21 03:22:41;;;;;;;9.77;4.37;;;16.80;99.90;;;;;;5113883;28;20661;-44
2023/06/21 03:25:12;;;;;;;7.73;4.00;;;16.90;99.90;;;;;;5113961;28;20202;-42
2023/06/21 03:27:39;;;;;;;9.43;4.00;;;16.90;99.90;;;;;;5114233;28;20162;-41
2023/06/21 03:30:06;;;;;;;8.53;4.23;;;16.90;99.90;;;;;;5113864;28;20174;-42
2023/06/21 03:32:32;;;;;;;12.70;4.47;;;17.00;99.90;;;;;;5113622;28;20581;-43
2023/06/21 03:34:58;;;;;;;11.33;4.47;;;17.00;99.90;;;;;;5114123;28;20281;-46
2023/06/21 03:37:25;;;;;;;9.30;5.13;;;17.00;99.90;;;;;;5113997;28;20182;-42
2023/06/21 03:39:50;;;;;;;10.43;4.40;;;17.00;99.90;;;;;;5095572;28;20268;-45
2023/06/21 03:42:16;;;;;;;9.73;4.80;;;17.10;99.90;;;;;;5114419;28;20591;-43
2023/06/21 03:44:41;;;;;;;16.13;5.50;;;17.10;99.90;;;;;;5114248;28;20294;-42
2023/06/21 03:47:07;;;;;;;8.30;5.00;;;17.10;99.90;;;;;;5114315;28;20173;-43
2023/06/21 03:49:33;;;;;;;10.10;4.77;;;17.10;99.90;;;;;;5113987;28;20217;-44
2023/06/21 03:51:58;;;;;;;9.23;4.90;;;17.20;99.90;;;;;;5095381;28;20190;-43
2023/06/21 03:54:24;;;;;;;15.77;5.17;;;17.20;99.90;;;;;;5113636;28;20208;-43
2023/06/21 03:56:49;;;;;;;11.43;4.60;;;17.20;99.90;;;;;;5113583;28;20533;-42
2023/06/21 03:59:15;;;;;;;13.03;4.77;;;17.20;99.90;;;;;;5113572;28;20201;-44
2023/06/21 04:01:41;;;;;;;12.37;5.10;;;17.30;99.90;;;;;;5113591;28;20218;-41
2023/06/21 04:04:06;;;;;;;13.47;5.10;;;17.30;99.90;;;;;;5113701;28;20209;-41
2023/06/21 04:06:32;;;;;;;8.23;4.80;;;17.30;99.90;;;;;;5114010;28;20209;-43
2023/06/21 04:08:57;;;;;;;11.63;4.93;;;17.30;99.90;;;;;;5113763;28;20257;-43
2023/06/21 04:11:23;;;;;;;14.30;5.30;;;17.30;99.90;;;;;;5113526;28;20316;-43
2023/06/21 04:13:48;;;;;;;12.27;4.93;;;17.40;99.90;;;;;;5113667;28;20290;-41
2023/06/21 04:16:21;;;;;;;11.97;4.63;;;17.40;99.90;;;;;;5095747;28;20189;-44
2023/06/21 04:19:20;;;;;;;12.67;5.27;;;17.40;99.90;;;;;;5097585;28;20194;-43
2023/06/21 04:21:46;;;;;;;16.60;6.20;;;17.50;99.90;;;;;;5093071;28;20192;-49
2023/06/21 04:24:12;;;;;;;13.27;5.87;;;17.60;99.90;;;;;;5117388;28;20206;-47
2023/06/21 04:26:37;;;;;;;14.00;5.17;;;17.60;99.90;;;;;;5117231;28;20522;-48
2023/06/21 04:29:03;;;;;;;11.37;5.50;;;17.60;99.90;;;;;;5117185;28;20170;-47
2023/06/21 04:31:29;;;;;;;10.20;4.97;;;17.70;99.90;;;;;;5117351;28;20216;-49
2023/06/21 04:33:55;;;;;;;6.30;5.30;;;17.70;99.90;;;;;;5117170;28;20210;-47
2023/06/21 04:36:21;;;;;;;10.80;5.77;;;17.70;99.90;;;;;;5117024;28;20183;-49
2023/06/21 04:38:49;;;;;;;8.23;5.90;;;17.80;99.90;;;;;;5117008;28;20204;-49
2023/06/21 04:41:16;;;;;;;10.10;5.27;;;17.80;99.90;;;;;;5116854;28;20250;-48
2023/06/21 04:43:42;;;;;;;13.20;6.10;;;17.90;99.90;;;;;;5117047;28;20292;-48
2023/06/21 04:46:08;;;;;;;13.30;6.17;;;17.90;99.90;;;;;;5116928;28;20219;-48
2023/06/21 04:48:34;;;;;;;9.57;6.07;;;18.00;99.90;;;;;;5116861;28;20681;-49
2023/06/21 04:50:59;;;;;;;13.17;6.37;;;18.10;99.90;;;;;;5117061;28;20261;-49
2023/06/21 04:53:29;;;;;;;9.57;6.60;;;18.20;99.90;;;;;;5116691;28;20229;-48
2023/06/21 04:55:58;;;;;;;10.93;6.17;;;18.20;99.90;;;;;;5117047;28;20185;-49
2023/06/21 04:58:25;;;;;;;12.37;6.73;;;18.30;99.90;;;;;;5117041;28;20177;-49
2023/06/21 05:00:51;;;;;;;12.27;7.50;;;18.40;99.90;;;;;;5116796;28;20178;-49
2023/06/21 05:03:16;;;;;;;14.80;7.30;;;18.50;99.90;;;;;;5098636;28;20281;-48
2023/06/21 05:05:42;;;;;;;11.37;6.63;;;18.60;99.90;;;;;;5116775;28;20300;-49
2023/06/21 05:08:07;;;;;;;18.60;8.30;;;18.70;99.90;;;;;;5098519;28;20186;-49
2023/06/21 05:10:34;;;;;;;15.83;7.63;;;18.80;99.90;;;;;;5116965;28;20182;-44
2023/06/21 05:12:59;;;;;;;10.43;7.57;;;18.80;99.90;;;;;;5116872;28;20198;-48
2023/06/21 05:15:26;;;;;;;15.27;7.40;;;18.90;99.90;;;;;;5097939;28;20199;-49
2023/06/21 05:17:51;;;;;;;21.17;7.97;;;18.90;99.90;;;;;;5116319;28;20240;-48
2023/06/21 05:20:19;;;;;;;22.03;9.07;;;19.00;99.90;;;;;;5116082;28;20693;-48
2023/06/21 05:22:45;;;;;;;12.57;8.27;;;19.00;99.90;;;;;;5116098;28;20642;-47
2023/06/21 05:25:11;;;;;;;15.30;8.00;;;19.10;99.90;;;;;;5097833;28;20208;-48
2023/06/21 05:27:37;;;;;;;19.63;7.90;;;19.10;99.90;;;;;;5116130;28;20183;-48
2023/06/21 05:30:03;;;;;;;11.17;8.10;;;19.10;99.90;;;;;;5116012;28;20700;-49
2023/06/21 05:32:28;;;;;;;18.77;8.33;;;19.20;99.90;;;;;;5115854;28;20210;-48
2023/06/21 05:34:54;;;;;;;17.30;7.87;;;19.20;99.90;;;;;;5115968;28;20208;-48
2023/06/21 05:37:20;;;;;;;25.23;8.43;;;19.30;99.90;;;;;;5115848;28;20206;-49
2023/06/21 05:39:45;;;;;;;15.57;7.90;;;19.40;99.90;;;;;;5115791;28;20619;-48
2023/06/21 05:42:11;;;;;;;18.27;8.10;;;19.50;99.90;;;;;;5115784;28;20189;-48
2023/06/21 05:44:37;;;;;;;12.27;8.10;;;19.50;99.90;;;;;;5115678;28;20198;-48
2023/06/21 05:47:03;;;;;;;14.83;8.20;;;19.60;99.90;;;;;;5115897;28;20253;-48
2023/06/21 05:49:29;;;;;;;14.17;8.10;;;19.70;99.90;;;;;;5115577;28;20185;-48
2023/06/21 05:51:54;;;;;;;10.23;7.90;;;19.70;99.90;;;;;;5115429;28;20631;-48
2023/06/21 05:54:20;;;;;;;12.87;8.53;;;19.80;99.90;;;;;;5097149;28;20702;-47
2023/06/21 05:56:45;;;;;;;16.53;7.97;;;19.90;99.90;;;;;;5116030;28;20214;-48
2023/06/21 05:59:11;;;;;;;13.13;7.53;;;20.00;99.90;;;;;;5115399;28;20260;-47
2023/06/21 06:01:36;;;;;;;11.10;7.77;;;20.10;99.90;;;;;;5115320;28;20180;-49
2023/06/21 06:04:02;;;;;;;12.17;8.07;;;20.30;99.90;;;;;;5115281;28;20204;-48
2023/06/21 06:06:39;;;;;;;9.30;7.93;;;20.40;99.90;;;;;;5097016;28;20648;-47
2023/06/21 06:09:05;;;;;;;11.77;8.17;;;20.60;99.90;;;;;;5115270;28;20614;-48
2023/06/21 06:11:31;;;;;;;12.17;8.23;;;20.70;99.90;;;;;;5115223;28;20261;-49
2023/06/21 06:13:57;;;;;;;11.93;7.50;;;21.00;99.90;;;;;;5115097;28;20305;-48
2023/06/21 06:16:22;;;;;;;18.17;8.20;;;21.10;99.90;;;;;;5115115;28;20261;-47
2023/06/21 06:18:48;;;;;;;11.47;7.63;;;21.40;99.90;;;;;;5114928;28;20209;-48
2023/06/21 06:21:14;;;;;;;10.60;7.93;;;21.50;99.90;;;;;;5114988;28;20236;-48
2023/06/21 06:23:40;;;;;;;12.17;8.23;;;21.70;99.90;;;;;;5115322;28;20205;-50
2023/06/21 06:26:06;;;;;;;11.30;8.47;;;21.90;99.90;;;;;;5115440;28;20210;-49
2023/06/21 06:28:31;;;;;;;12.83;8.47;;;22.20;99.90;;;;;;5115160;28;20189;-47
2023/06/21 06:30:57;;;;;;;11.77;8.40;;;22.40;99.90;;;;;;5115163;28;20186;-49
2023/06/21 06:33:22;;;;;;;11.37;8.43;;;22.50;99.90;;;;;;5114960;28;20259;-49
2023/06/21 06:35:48;;;;;;;12.60;8.40;;;22.70;99.90;;;;;;5114849;28;20194;-48
2023/06/21 06:38:14;;;;;;;10.33;7.93;;;22.90;99.90;;;;;;5115068;28;20642;-49
2023/06/21 06:40:39;;;;;;;9.20;7.80;;;23.10;99.90;;;;;;5114024;28;20281;-47
2023/06/21 06:43:06;;;;;;;10.53;7.73;;;23.20;99.90;;;;;;5114618;28;20182;-48
2023/06/21 06:45:32;;;;;;;12.83;8.43;;;23.30;99.90;;;;;;5114897;28;20572;-49
2023/06/21 06:47:57;;;;;;;8.77;7.87;;;23.30;99.90;;;;;;5114735;28;20181;-48
2023/06/21 06:50:23;;;;;;;11.90;8.70;;;23.30;99.90;;;;;;5114668;28;20193;-48
2023/06/21 06:52:49;;;;;;;9.33;8.20;;;23.20;99.90;;;;;;5114340;28;20218;-48
2023/06/21 06:55:15;;;;;;;10.30;8.50;;;23.10;99.90;;;;;;5114293;28;20210;-49
2023/06/21 06:57:40;;;;;;;10.77;8.93;;;23.10;99.90;;;;;;5114346;28;20657;-48
2023/06/21 07:00:14;;;;;;;12.33;9.03;;;23.00;99.90;;;;;;5114301;28;20196;-49
2023/06/21 07:02:40;;;;;;;12.97;9.23;;;22.90;99.90;;;;;;5096032;28;20251;-49
2023/06/21 07:05:05;;;;;;;10.93;8.83;;;22.90;99.90;;;;;;5114401;28;20197;-47
2023/06/21 07:07:31;;;;;;;10.73;8.60;;;22.90;99.90;;;;;;5114098;28;20178;-49
2023/06/21 07:09:57;;;;;;;17.73;8.77;;;23.10;99.90;;;;;;5114116;28;20194;-50
2023/06/21 07:12:22;;;;;;;12.20;8.93;;;23.20;99.90;;;;;;5113892;28;20218;-48
2023/06/21 07:14:48;;;;;;;10.17;8.60;;;23.40;99.90;;;;;;5113930;28;20296;-49
2023/06/21 07:17:14;;;;;;;9.50;8.40;;;23.50;99.90;;;;;;5114074;28;20181;-48
2023/06/21 07:19:41;;;;;;;9.30;8.20;;;23.60;99.90;;;;;;5113925;28;20209;-48
2023/06/21 07:22:07;;;;;;;11.40;8.53;;;23.60;99.90;;;;;;5113957;28;20199;-50
2023/06/21 07:24:32;;;;;;;12.83;9.10;;;23.70;99.90;;;;;;5113792;28;20210;-50
2023/06/21 07:26:58;;;;;;;10.77;9.03;;;23.70;99.90;;;;;;5113876;28;20197;-48
2023/06/21 07:29:23;;;;;;;9.43;8.43;;;23.70;99.90;;;;;;5095746;28;20178;-49
2023/06/21 07:31:49;;;;;;;10.30;9.07;;;23.70;99.90;;;;;;5113784;28;20209;-49
2023/06/21 07:34:14;;;;;;;12.20;9.20;;;23.80;99.90;;;;;;5113648;28;20584;-47
2023/06/21 07:36:40;;;;;;;9.47;8.47;;;23.80;99.90;;;;;;5114025;28;20517;-50
2023/06/21 07:39:06;;;;;;;9.33;8.37;;;23.70;99.90;;;;;;5113907;28;20174;-49
2023/06/21 07:41:31;;;;;;;13.03;8.43;;;23.80;99.90;;;;;;5113743;28;20186;-49
2023/06/21 07:43:57;;;;;;;9.23;8.27;;;24.00;99.90;;;;;;5113641;28;20198;-49
2023/06/21 07:46:22;;;;;;;10.67;8.13;;;24.20;99.90;;;;;;5113631;28;20691;-49
2023/06/21 07:48:48;;;;;;;11.17;8.10;;;24.40;99.90;;;;;;5113662;28;20315;-49
2023/06/21 07:51:13;;;;;;;10.13;8.53;;;24.70;99.90;;;;;;5113683;28;20694;-48
2023/06/21 07:53:39;;;;;;;11.83;8.63;;;24.80;99.90;;;;;;5117795;28;20263;-48
2023/06/21 07:56:04;;;;;;;10.53;9.40;;;24.70;99.90;;;;;;5117840;28;20253;-49
2023/06/21 07:58:31;;;;;;;14.10;8.73;;;24.60;99.90;;;;;;5117859;28;20548;-49
2023/06/21 08:00:56;;;;;;;11.23;9.17;;;24.60;99.90;;;;;;5118095;28;20209;-48
2023/06/21 08:03:22;;;;;;;10.13;8.23;;;24.50;99.90;;;;;;5117952;28;20533;-50
2023/06/21 08:05:47;;;;;;;9.53;8.53;;;24.50;99.90;;;;;;5117597;28;20202;-48
2023/06/21 08:08:16;;;;;;;10.93;7.77;;;24.60;99.90;;;;;;5117604;28;20185;-49
2023/06/21 08:10:41;;;;;;;9.40;8.37;;;24.80;99.90;;;;;;5117454;28;20265;-48
2023/06/21 08:13:07;;;;;;;10.93;7.83;;;24.90;99.90;;;;;;5117415;28;20340;-50
2023/06/21 08:15:32;;;;;;;8.40;7.57;;;25.10;99.90;;;;;;5099039;28;20226;-49
2023/06/21 08:17:58;;;;;;;9.17;8.20;;;25.30;99.90;;;;;;5117681;28;20638;-49
2023/06/21 08:20:23;;;;;;;12.57;8.30;;;25.20;99.90;;;;;;5117237;28;20190;-48
2023/06/21 08:22:49;;;;;;;12.00;8.77;;;25.20;99.90;;;;;;5117304;28;20642;-48
2023/06/21 08:25:15;;;;;;;14.43;8.50;;;25.30;99.90;;;;;;5117701;28;20191;-48
2023/06/21 08:27:41;;;;;;;12.63;9.73;;;25.20;99.90;;;;;;5117181;28;20174;-50
2023/06/21 08:30:07;;;;;;;10.57;8.63;;;25.10;99.90;;;;;;5117381;28;20241;-49
2023/06/21 08:32:32;;;;;;;9.67;8.67;;;25.00;99.90;;;;;;5117061;28;20300;-49
2023/06/21 08:34:58;;;;;;;10.70;9.03;;;25.10;99.90;;;;;;5116987;28;20285;-49
2023/06/21 08:37:25;;;;;;;10.97;8.40;;;25.20;99.90;;;;;;5117269;28;20177;-49
2023/06/21 08:39:52;;;;;;;11.60;9.20;;;25.30;99.90;;;;;;5117292;28;20683;-49
2023/06/21 08:42:23;;;;;;;13.90;9.80;;;25.40;99.90;;;;;;5117247;28;20219;-49
2023/06/21 08:44:50;;;;;;;15.13;10.40;;;25.30;99.90;;;;;;5116855;28;20212;-49
2023/06/21 08:47:16;;;;;;;16.00;10.07;;;25.10;99.90;;;;;;5116844;28;20588;-48
2023/06/21 08:49:46;;;;;;;12.20;9.47;;;25.00;99.90;;;;;;5116770;28;20219;-49
2023/06/21 08:52:17;;;;;;;11.17;9.97;;;25.10;99.90;;;;;;5117127;28;20538;-50
2023/06/21 08:54:49;;;;;;;12.73;10.00;;;25.30;99.90;;;;;;5116874;28;20209;-49
2023/06/21 08:57:21;;;;;;;11.40;10.20;;;25.60;99.90;;;;;;5116941;28;20171;-49
2023/06/21 09:00:02;;;;;;;16.83;9.93;;;25.50;99.90;;;;;;5116652;28;20166;-49
2023/06/21 09:03:01;;;;;;;13.17;9.10;;;25.30;99.90;;;;;;5116850;28;20253;-48
2023/06/21 09:05:33;;;;;;;10.67;8.43;;;25.30;99.90;;;;;;5116210;28;20233;-49
2023/06/21 09:08:00;;;;;;;12.23;8.27;;;25.60;99.90;;;;;;5116685;28;20265;-50
2023/06/21 09:10:28;;;;;;;11.80;9.50;;;25.80;99.90;;;;;;5116916;28;20579;-50
2023/06/21 09:12:56;;;;;;;11.07;9.63;;;26.00;99.90;;;;;;5116483;28;20304;-50
2023/06/21 09:15:23;;;;;;;13.80;9.17;;;26.20;99.90;;;;;;5116117;28;20234;-50
2023/06/21 09:17:50;;;;;;;11.77;9.33;;;25.90;99.90;;;;;;5116468;28;20189;-50
2023/06/21 09:20:16;;;;;;;11.27;9.47;;;25.70;99.90;;;;;;5097787;28;20237;-49
2023/06/21 09:22:43;;;;;;;13.87;9.80;;;25.60;99.90;;;;;;5116605;28;20186;-50
2023/06/21 09:25:09;;;;;;;10.07;9.00;;;25.60;99.90;;;;;;5116162;28;20209;-51
2023/06/21 09:27:34;;;;;;;10.07;8.90;;;25.70;99.90;;;;;;5116004;28;20546;-50
2023/06/21 09:30:00;;;;;;;11.40;9.03;;;26.10;99.90;;;;;;5116245;28;20550;-49
2023/06/21 09:32:26;;;;;;;12.67;9.47;;;26.30;99.90;;;;;;5116102;28;20292;-50
2023/06/21 09:34:51;;;;;;;14.57;8.27;;;26.30;99.90;;;;;;5115926;28;20289;-50
2023/06/21 09:37:43;;;;;;;12.50;9.80;;;26.10;99.90;;;;;;5116404;28;20257;-50
2023/06/21 09:40:09;;;;;;;10.27;9.27;;;26.20;99.90;;;;;;5112151;28;20196;-50
2023/06/21 09:42:45;;;;;;;12.30;9.23;;;26.30;99.90;;;;;;5115780;28;20256;-50
2023/06/21 09:45:18;;;;;;;9.67;8.00;;;26.30;99.90;;;;;;5115615;28;20280;-50
2023/06/21 09:47:44;;;;;;;9.70;8.43;;;26.30;99.90;;;;;;5115651;28;20170;-50
2023/06/21 09:50:11;;;;;;;13.47;8.00;;;26.40;99.90;;;;;;5115900;28;20547;-50
2023/06/21 09:52:43;;;;;;;12.07;7.90;;;26.50;99.90;;;;;;5097245;28;20213;-49
2023/06/21 09:55:13;;;;;;;11.23;7.53;;;26.80;99.90;;;;;;5115716;28;20674;-50
2023/06/21 09:57:39;;;;;;;8.27;7.30;;;27.00;99.90;;;;;;5115712;28;20186;-50
2023/06/21 10:00:06;;;;;;;8.13;7.17;;;27.20;99.90;;;;;;5115635;28;20182;-50
2023/06/21 10:02:39;;;;;;;10.70;7.93;;;27.30;99.90;;;;;;5115284;28;20193;-50
2023/06/21 10:05:05;;;;;;;9.93;6.82;;;27.10;99.90;;;;;;5115181;28;20202;-50
2023/06/21 10:07:30;;;;;;;11.40;6.72;;;27.00;99.90;;;;;;5115193;28;20646;-49
2023/06/21 10:10:04;;;;;;;10.60;6.13;;;27.00;99.90;;;;;;5115178;28;20257;-50
2023/06/21 10:12:30;;;;;;;7.83;6.30;;;27.20;99.90;;;;;;5115354;28;20233;-50
2023/06/21 10:14:58;;;;;;;8.18;6.70;;;27.40;99.90;;;;;;5114341;28;20662;-50
2023/06/21 10:17:25;;;;;;;8.73;6.32;;;27.50;99.90;;;;;;5115253;28;20645;-50
2023/06/21 10:19:51;;;;;;;9.32;6.43;;;27.60;99.90;;;;;;5115069;28;20182;-50
2023/06/21 10:22:21;;;;;;;7.78;6.97;;;27.60;99.90;;;;;;5115161;28;20205;-50
2023/06/21 10:24:49;;;;;;;7.78;6.63;;;27.50;99.90;;;;;;5114884;28;20236;-50
2023/06/21 10:27:17;;;;;;;8.15;7.03;;;27.10;99.90;;;;;;5114844;28;20178;-50
2023/06/21 10:29:44;;;;;;;7.70;6.85;;;26.90;99.90;;;;;;5114779;28;20202;-49
2023/06/21 10:32:11;;;;;;;7.55;6.43;;;27.00;99.90;;;;;;5114574;28;20181;-50
2023/06/21 10:34:56;;;;;;;9.90;6.13;;;27.00;99.90;;;;;;5115013;28;20243;-44
2023/06/21 10:37:32;;;;;;;6.38;5.53;;;27.10;99.90;;;;;;5114973;28;20536;-42
2023/06/21 10:40:04;;;;;;;7.13;5.63;;;27.30;99.90;;;;;;5114651;28;20162;-44
2023/06/21 10:42:32;;;;;;;6.80;5.35;;;27.40;99.90;;;;;;5114929;28;20212;-44
2023/06/21 10:44:59;;;;;;;10.27;5.57;;;27.60;99.90;;;;;;5114469;28;20277;-44
2023/06/21 10:47:25;;;;;;;5.60;4.80;;;27.60;99.90;;;;;;5114799;28;20598;-43
2023/06/21 10:49:57;;;;;;;8.05;5.07;;;27.80;99.90;;;;;;5114461;28;20170;-45
2023/06/21 10:52:23;;;;;;;7.85;4.50;;;28.10;99.90;;;;;;5114674;28;20673;-44
2023/06/21 10:54:50;;;;;;;5.65;4.97;;;28.20;99.90;;;;;;5114349;28;20229;-42
2023/06/21 10:57:17;;;;;;;5.20;4.65;;;28.20;99.90;;;;;;5096120;28;20201;-45
2023/06/21 10:59:43;;;;;;;5.30;4.53;;;28.30;99.90;;;;;;5114566;28;20198;-45
2023/06/21 11:02:09;;;;;;;7.05;5.47;;;28.30;99.90;;;;;;5114883;28;20178;-44
2023/06/21 11:05:14;;;;;;;5.15;4.57;;;28.30;99.90;;;;;;5115221;28;20198;-43
2023/06/21 11:08:11;;;;;;;4.85;4.38;;;28.20;99.90;;;;;;5083866;28;20285;-43
2023/06/21 11:10:43;;;;;;;5.78;4.65;;;28.20;99.90;;;;;;5098328;28;20659;-43
2023/06/21 11:13:10;;;;;;;8.35;5.60;;;28.30;99.90;;;;;;5114226;28;20210;-44
2023/06/21 11:15:41;;;;;;;6.55;5.88;;;28.50;99.90;;;;;;5113976;28;20189;-43
2023/06/21 11:18:09;;;;;;;5.68;5.18;;;28.30;99.90;;;;;;5114214;28;20174;-46
2023/06/21 11:20:52;;;;;;;6.70;5.90;;;28.10;99.90;;;;;;5114283;28;20561;-44
2023/06/21 11:23:21;;;;;;;5.88;5.30;;;28.00;99.90;;;;;;5114244;28;20252;-43
2023/06/21 11:26:12;;;;;;;5.10;4.40;;;27.90;99.90;;;;;;5114215;28;20285;-44
2023/06/21 11:28:43;;;;;;;7.50;5.00;;;28.10;99.90;;;;;;5114259;28;20172;-44
2023/06/21 11:31:12;;;;;;;6.15;4.50;;;28.30;99.90;;;;;;5114159;28;20166;-43
2023/06/21 11:33:55;;;;;;;6.57;4.47;;;28.30;99.90;;;;;;5095424;28;20202;-44
2023/06/21 11:36:28;;;;;;;5.28;3.97;;;28.50;99.90;;;;;;5114106;28;20517;-41
2023/06/21 11:39:06;;;;;;;5.00;3.70;;;28.60;99.90;;;;;;5113697;28;20178;-44
2023/06/21 11:41:45;;;;;;;5.25;3.75;;;28.80;99.90;;;;;;5114041;28;20173;-42
2023/06/21 11:44:19;;;;;;;7.22;4.10;;;28.90;99.90;;;;;;5114031;28;20696;-44
2023/06/21 11:46:46;;;;;;;7.47;4.20;;;28.80;99.90;;;;;;5114165;28;20172;-43
2023/06/21 11:49:12;;;;;;;4.47;3.88;;;28.70;99.90;;;;;;5113800;28;20182;-45
2023/06/21 11:52:04;;;;;;;5.35;4.40;;;28.80;99.90;;;;;;5113996;28;20638;-44
2023/06/21 11:54:34;;;;;;;4.40;4.00;;;28.90;99.90;;;;;;5113755;28;20217;-45
2023/06/21 11:57:06;;;;;;;4.93;4.07;;;29.00;99.90;;;;;;5113594;28;20166;-44
2023/06/21 11:59:33;;;;;;;6.10;3.78;;;29.00;99.90;;;;;;5113998;28;20162;-44
2023/06/21 12:02:13;;;;;;;4.00;3.30;;;29.30;99.90;;;;;;5113512;28;20261;-44
2023/06/21 12:04:43;;;;;;;4.72;4.30;;;29.50;99.90;;;;;;5113561;28;20212;-43
2023/06/21 12:07:10;;;;;;;4.90;4.25;;;29.60;99.90;;;;;;5113485;28;20731;-43
2023/06/21 12:09:39;;;;;;;5.68;4.07;;;29.70;99.90;;;;;;5113425;28;20666;-44
2023/06/21 12:12:06;;;;;;;5.55;4.00;;;29.70;99.90;;;;;;5113713;28;20182;-46
2023/06/21 12:14:31;;;;;;;4.80;4.10;;;29.70;99.90;;;;;;5113598;28;20210;-45
2023/06/21 12:16:59;;;;;;;4.72;3.72;;;29.60;99.90;;;;;;5113376;28;20192;-45
2023/06/21 12:19:25;;;;;;;5.57;3.80;;;29.60;99.90;;;;;;5113298;28;20281;-44
2023/06/21 12:21:50;;;;;;;4.55;3.63;;;29.50;99.90;;;;;;5114429;28;20210;-43
2023/06/21 12:24:30;;;;;;;5.25;3.70;;;29.40;99.90;;;;;;5113150;28;20218;-44
2023/06/21 12:26:57;;;;;;;5.53;4.30;;;29.40;99.90;;;;;;5113593;28;20170;-43
2023/06/21 12:29:25;;;;;;;7.25;3.60;;;29.50;99.90;;;;;;5113545;28;20643;-45
2023/06/21 12:31:50;;;;;;;4.78;3.55;;;29.70;99.90;;;;;;5113246;28;20196;-45
2023/06/21 12:34:17;;;;;;;4.28;3.08;;;29.80;99.90;;;;;;5113449;28;20703;-44
2023/06/21 12:36:46;;;;;;;4.25;3.85;;;29.80;99.90;;;;;;5113483;28;20197;-45
2023/06/21 12:39:14;;;;;;;4.55;3.83;;;29.70;99.90;;;;;;5114761;28;20170;-45
2023/06/21 12:41:41;;;;;;;6.53;4.07;;;29.60;99.90;;;;;;5117285;28;20162;-42
2023/06/21 12:44:21;;;;;;;4.13;3.50;;;29.60;99.90;;;;;;5117083;28;20206;-44